createdAt,value
2022-12-27T00:01:12.644Z,61.40
2022-12-27T00:03:41.318Z,59.67
2022-12-27T00:06:12.902Z,64.35
2022-12-27T00:08:41.000Z,64.05
2022-12-27T00:11:10.412Z,65.65
2022-12-27T00:13:38.368Z,67.13
2022-12-27T00:16:07.405Z,68.38
2022-12-27T00:18:35.523Z,63.55
2022-12-27T00:21:04.694Z,61.63
2022-12-27T00:23:36.304Z,61.33
2022-12-27T00:26:05.604Z,57.60
2022-12-27T00:28:34.620Z,54.22
2022-12-27T00:31:02.706Z,57.58
2022-12-27T00:33:33.381Z,63.20
2022-12-27T00:36:03.120Z,66.93
2022-12-27T00:38:31.091Z,62.75
2022-12-27T00:41:00.557Z,73.55
2022-12-27T00:43:28.786Z,69.93
2022-12-27T00:45:56.822Z,64.28
2022-12-27T00:48:25.141Z,66.38
2022-12-27T00:50:59.463Z,68.80
2022-12-27T00:53:27.561Z,65.97
2022-12-27T00:55:55.931Z,64.10
2022-12-27T00:58:25.632Z,59.63
2022-12-27T01:00:54.010Z,59.40
2022-12-27T01:03:22.208Z,63.65
2022-12-27T01:05:50.436Z,53.60
2022-12-27T01:08:18.400Z,57.13
2022-12-27T01:10:46.435Z,58.55
2022-12-27T01:13:14.492Z,59.25
2022-12-27T01:15:44.423Z,56.38
2022-12-27T01:18:12.410Z,54.58
2022-12-27T01:20:40.346Z,56.58
2022-12-27T01:23:08.381Z,55.55
2022-12-27T01:25:36.339Z,52.92
2022-12-27T01:28:04.569Z,54.50
2022-12-27T01:30:32.945Z,53.97
2022-12-27T01:33:02.428Z,63.08
2022-12-27T01:35:30.426Z,52.75
2022-12-27T01:37:58.496Z,56.42
2022-12-27T01:40:27.063Z,57.30
2022-12-27T01:42:54.918Z,55.85
2022-12-27T01:45:23.905Z,60.17
2022-12-27T01:47:58.109Z,63.33
2022-12-27T01:50:35.000Z,61.90
2022-12-27T01:53:12.161Z,56.70
2022-12-27T01:55:47.730Z,58.70
2022-12-27T01:58:20.055Z,56.00
2022-12-27T02:00:49.829Z,65.40
2022-12-27T02:03:23.560Z,66.00
2022-12-27T02:05:53.280Z,73.50
2022-12-27T02:08:34.868Z,65.43
2022-12-27T02:11:04.257Z,61.97
2022-12-27T02:13:35.826Z,55.85
2022-12-27T02:16:03.807Z,61.20
2022-12-27T02:18:31.996Z,69.85
2022-12-27T02:21:31.137Z,63.13
2022-12-27T02:24:33.288Z,54.88
2022-12-27T02:27:07.492Z,64.55
2022-12-27T02:29:56.798Z,56.10
2022-12-27T02:32:30.566Z,54.97
2022-12-27T02:35:09.780Z,63.33
2022-12-27T02:37:43.191Z,59.38
2022-12-27T02:40:30.225Z,58.80
2022-12-27T02:43:15.822Z,62.05
2022-12-27T02:46:07.319Z,61.63
2022-12-27T02:48:52.387Z,61.55
2022-12-27T02:51:50.364Z,55.55
2022-12-27T02:54:35.926Z,61.33
2022-12-27T02:57:16.505Z,60.47
2022-12-27T03:00:23.673Z,59.72
2022-12-27T03:03:23.752Z,58.83
2022-12-27T03:06:41.332Z,58.78
2022-12-27T03:10:00.475Z,59.55
2022-12-27T03:13:04.177Z,57.78
2022-12-27T03:15:57.360Z,60.78
2022-12-27T03:18:42.723Z,60.67
2022-12-27T03:21:30.110Z,57.03
2022-12-27T03:24:17.856Z,55.63
2022-12-27T03:26:48.629Z,55.55
2022-12-27T03:29:38.424Z,59.65
2022-12-27T03:32:34.087Z,69.00
2022-12-27T03:35:09.137Z,67.05
2022-12-27T03:40:38.916Z,62.13
2022-12-27T03:43:12.006Z,67.80
2022-12-27T03:46:17.006Z,59.20
2022-12-27T03:49:12.332Z,71.22
2022-12-27T03:51:45.967Z,69.55
2022-12-27T03:54:26.336Z,69.78
2022-12-27T03:57:00.926Z,101.00
2022-12-27T03:59:29.506Z,68.47
2022-12-27T04:01:57.863Z,66.32
2022-12-27T04:04:25.964Z,63.25
2022-12-27T04:06:55.419Z,56.22
2022-12-27T04:09:41.325Z,56.92
2022-12-27T04:12:26.708Z,55.92
2022-12-27T04:17:56.819Z,56.25
2022-12-27T04:23:29.276Z,53.53
2022-12-27T04:26:14.781Z,57.90
2022-12-27T04:29:00.055Z,53.42
2022-12-27T04:31:45.331Z,57.95
2022-12-27T04:34:30.319Z,50.72
2022-12-27T04:36:58.451Z,53.97
2022-12-27T04:39:27.905Z,59.75
2022-12-27T04:42:13.306Z,56.53
2022-12-27T04:47:44.138Z,53.42
2022-12-27T04:50:45.425Z,63.22
2022-12-27T04:53:32.357Z,51.33
2022-12-27T04:56:02.580Z,50.42
2022-12-27T04:58:30.756Z,52.90
2022-12-27T05:01:19.971Z,51.45
2022-12-27T05:03:51.765Z,50.45
2022-12-27T05:06:20.085Z,53.80
2022-12-27T05:09:05.803Z,57.03
2022-12-27T05:12:03.973Z,60.25
2022-12-27T05:14:31.907Z,54.28
2022-12-27T05:17:00.208Z,60.95
2022-12-27T05:19:28.324Z,56.42
2022-12-27T05:22:19.405Z,54.92
2022-12-27T05:25:13.276Z,52.03
2022-12-27T05:27:42.726Z,45.38
2022-12-27T05:30:11.756Z,45.67
2022-12-27T05:32:39.767Z,48.15
2022-12-27T05:35:08.214Z,47.35
2022-12-27T05:37:36.291Z,47.72
2022-12-27T05:40:04.602Z,48.85
2022-12-27T05:42:32.833Z,43.63
2022-12-27T05:45:02.218Z,48.97
2022-12-27T05:47:30.297Z,46.15
2022-12-27T05:49:58.323Z,46.03
2022-12-27T05:52:26.424Z,45.83
2022-12-27T05:54:54.449Z,51.28
2022-12-27T05:57:22.596Z,49.28
2022-12-27T05:59:50.597Z,55.83
2022-12-27T06:02:20.375Z,51.47
2022-12-27T06:04:48.434Z,60.80
2022-12-27T06:07:16.492Z,65.85
2022-12-27T06:09:44.467Z,62.05
2022-12-27T06:12:12.374Z,53.25
2022-12-27T06:14:41.374Z,57.22
2022-12-27T06:17:09.349Z,57.13
2022-12-27T06:19:38.728Z,57.35
2022-12-27T06:22:06.690Z,57.08
2022-12-27T06:24:34.571Z,59.38
2022-12-27T06:27:02.760Z,58.45
2022-12-27T06:29:30.717Z,53.72
2022-12-27T06:31:58.721Z,50.90
2022-12-27T06:34:26.768Z,39.80
2022-12-27T06:36:56.264Z,39.75
2022-12-27T06:39:24.256Z,36.75
2022-12-27T06:41:55.258Z,35.83
2022-12-27T06:44:23.238Z,32.53
2022-12-27T06:46:51.232Z,31.33
2022-12-27T06:49:19.320Z,31.88
2022-12-27T06:51:52.585Z,32.55
2022-12-27T06:54:25.495Z,30.92
2022-12-27T06:56:53.507Z,32.63
2022-12-27T06:59:21.456Z,31.05
2022-12-27T07:01:49.564Z,30.45
2022-12-27T07:04:17.615Z,31.17
2022-12-27T07:06:45.670Z,31.98
2022-12-27T07:09:13.766Z,32.17
2022-12-27T07:11:43.318Z,33.30
2022-12-27T07:14:11.746Z,29.73
2022-12-27T07:16:39.753Z,32.53
2022-12-27T07:19:07.916Z,29.55
2022-12-27T07:21:35.907Z,27.45
2022-12-27T07:24:04.059Z,30.00
2022-12-27T07:26:32.080Z,26.60
2022-12-27T07:29:02.995Z,24.33
2022-12-27T07:31:34.012Z,25.02
2022-12-27T07:34:04.285Z,26.83
2022-12-27T07:36:36.814Z,24.10
2022-12-27T07:39:05.847Z,26.17
2022-12-27T07:41:33.968Z,26.33
2022-12-27T07:44:04.055Z,28.08
2022-12-27T07:46:32.948Z,27.20
2022-12-27T07:49:01.586Z,27.02
2022-12-27T07:51:30.449Z,33.13
2022-12-27T07:53:58.385Z,30.55
2022-12-27T07:56:29.232Z,38.80
2022-12-27T07:58:59.085Z,31.55
2022-12-27T08:01:30.512Z,42.75
2022-12-27T08:03:58.625Z,36.40
2022-12-27T08:06:29.569Z,32.20
2022-12-27T08:09:00.195Z,33.28
2022-12-27T08:11:28.218Z,31.20
2022-12-27T08:13:56.118Z,32.70
2022-12-27T08:16:26.485Z,29.73
2022-12-27T08:18:56.072Z,33.45
2022-12-27T08:21:24.471Z,33.40
2022-12-27T08:23:52.433Z,34.78
2022-12-27T08:26:20.345Z,31.83
2022-12-27T08:28:48.282Z,36.33
2022-12-27T08:31:16.270Z,34.65
2022-12-27T08:33:44.266Z,38.13
2022-12-27T08:36:45.190Z,35.00
2022-12-27T08:39:02.997Z,34.08
2022-12-27T08:41:30.984Z,34.83
2022-12-27T08:43:58.961Z,37.38
2022-12-27T08:46:27.079Z,36.42
2022-12-27T08:48:55.197Z,32.22
2022-12-27T08:51:33.085Z,33.55
2022-12-27T08:54:06.883Z,33.47
2022-12-27T08:56:34.891Z,32.13
2022-12-27T08:59:04.165Z,32.92
2022-12-27T09:01:32.716Z,32.17
2022-12-27T09:04:00.730Z,32.55
2022-12-27T09:06:30.033Z,28.08
2022-12-27T09:08:58.156Z,27.00
2022-12-27T09:11:28.156Z,30.20
2022-12-27T09:13:56.541Z,28.98
2022-12-27T09:16:27.559Z,28.25
2022-12-27T09:18:56.825Z,29.88
2022-12-27T09:21:31.701Z,24.65
2022-12-27T09:26:29.519Z,29.52
2022-12-27T09:28:59.404Z,24.67
2022-12-27T09:31:28.290Z,24.80
2022-12-27T09:33:56.635Z,25.95
2022-12-27T09:36:26.553Z,29.23
2022-12-27T09:38:57.335Z,25.05
2022-12-27T09:44:34.161Z,24.85
2022-12-27T09:47:07.091Z,26.48
2022-12-27T09:49:39.295Z,23.27
2022-12-27T09:52:13.306Z,29.58
2022-12-27T09:54:52.915Z,26.77
2022-12-27T09:57:26.251Z,27.85
2022-12-27T09:59:59.692Z,21.08
2022-12-27T10:02:29.484Z,23.30
2022-12-27T10:08:07.233Z,22.35
2022-12-27T10:10:44.191Z,24.27
2022-12-27T10:13:25.973Z,28.52
2022-12-27T10:16:10.532Z,23.33
2022-12-27T10:18:50.054Z,22.33
2022-12-27T10:21:22.535Z,19.27
2022-12-27T10:23:59.182Z,18.65
2022-12-27T10:26:28.878Z,18.35
2022-12-27T10:29:02.081Z,21.85
2022-12-27T10:31:32.970Z,16.77
2022-12-27T10:34:03.986Z,16.05
2022-12-27T10:36:35.581Z,17.58
2022-12-27T10:39:05.057Z,15.13
2022-12-27T10:41:50.284Z,17.00
2022-12-27T10:46:52.469Z,12.18
2022-12-27T10:49:28.496Z,13.00
2022-12-27T10:52:00.530Z,12.27
2022-12-27T10:54:30.494Z,12.23
2022-12-27T10:57:19.869Z,14.50
2022-12-27T11:00:07.897Z,12.90
2022-12-27T11:02:36.274Z,11.88
2022-12-27T11:05:04.541Z,12.52
2022-12-27T11:07:34.654Z,11.60
2022-12-27T11:10:10.133Z,11.55
2022-12-27T11:12:40.057Z,21.25
2022-12-27T11:15:18.974Z,15.15
2022-12-27T11:17:50.195Z,14.10
2022-12-27T11:20:24.344Z,13.23
2022-12-27T11:22:56.840Z,12.15
2022-12-27T11:25:27.791Z,10.65
2022-12-27T11:28:07.990Z,12.23
2022-12-27T11:30:40.615Z,13.70
2022-12-27T11:33:24.653Z,13.18
2022-12-27T11:35:55.707Z,12.02
2022-12-27T11:38:27.005Z,7.07
2022-12-27T11:41:01.871Z,8.85
2022-12-27T11:43:37.072Z,12.70
2022-12-27T11:46:14.043Z,11.18
2022-12-27T11:48:46.890Z,7.90
2022-12-27T11:51:42.288Z,7.57
2022-12-27T11:54:30.013Z,7.80
2022-12-27T11:57:07.858Z,8.25
2022-12-27T11:59:54.352Z,7.80
2022-12-27T12:02:35.101Z,8.65
2022-12-27T12:05:27.294Z,7.07
2022-12-27T12:08:12.776Z,6.63
2022-12-27T12:10:51.575Z,3.72
2022-12-27T12:14:04.296Z,5.47
2022-12-27T12:16:58.223Z,3.63
2022-12-27T12:20:00.042Z,3.38
2022-12-27T12:22:43.319Z,5.25
2022-12-27T12:25:43.725Z,4.53
2022-12-27T12:28:58.584Z,6.75
2022-12-27T12:31:49.789Z,6.55
2022-12-27T12:34:42.493Z,5.45
2022-12-27T12:37:22.574Z,5.05
2022-12-27T12:40:08.264Z,6.45
2022-12-27T12:42:44.386Z,5.05
2022-12-27T12:45:33.086Z,6.32
2022-12-27T12:48:25.644Z,5.68
2022-12-27T12:51:19.627Z,6.78
2022-12-27T12:54:04.497Z,7.10
2022-12-27T12:56:59.357Z,7.55
2022-12-27T12:59:52.013Z,4.78
2022-12-27T13:02:42.435Z,5.03
2022-12-27T13:05:15.922Z,5.80
2022-12-27T13:08:00.160Z,8.57
2022-12-27T13:11:06.959Z,4.00
2022-12-27T13:13:45.283Z,4.25
2022-12-27T13:16:26.634Z,4.70
2022-12-27T13:19:06.836Z,4.65
2022-12-27T13:21:54.768Z,3.85
2022-12-27T13:24:32.448Z,3.63
2022-12-27T13:27:10.677Z,3.67
2022-12-27T13:30:06.376Z,4.45
2022-12-27T13:32:47.983Z,6.45
2022-12-27T13:35:31.405Z,4.25
2022-12-27T13:38:14.121Z,3.22
2022-12-27T13:41:08.507Z,4.00
2022-12-27T13:44:04.657Z,3.58
2022-12-27T13:46:49.096Z,3.45
2022-12-27T13:49:32.955Z,4.60
2022-12-27T13:52:13.819Z,4.82
2022-12-27T13:55:07.026Z,5.85
2022-12-27T13:58:14.832Z,3.00
2022-12-27T14:00:49.448Z,3.63
2022-12-27T14:03:59.199Z,3.00
2022-12-27T14:07:04.430Z,3.92
2022-12-27T14:09:49.401Z,5.03
2022-12-27T14:13:02.711Z,3.63
2022-12-27T14:15:49.666Z,5.00
2022-12-27T14:18:40.441Z,8.32
2022-12-27T14:21:21.752Z,5.97
2022-12-27T14:24:10.644Z,5.20
2022-12-27T14:27:20.420Z,5.82
2022-12-27T14:30:24.529Z,9.82
2022-12-27T14:33:32.230Z,6.28
2022-12-27T14:36:35.287Z,18.13
2022-12-27T14:39:39.325Z,7.57
2022-12-27T14:42:26.038Z,7.00
2022-12-27T14:45:22.584Z,6.13
2022-12-27T14:48:25.579Z,8.15
2022-12-27T14:51:58.825Z,8.00
2022-12-27T14:54:57.607Z,8.25
2022-12-27T14:57:37.260Z,7.35
2022-12-27T15:00:15.780Z,13.40
2022-12-27T15:02:58.363Z,7.72
2022-12-27T15:05:45.193Z,10.23
2022-12-27T15:08:43.063Z,5.20
2022-12-27T15:11:31.771Z,6.53
2022-12-27T15:14:17.623Z,4.47
2022-12-27T15:16:56.693Z,3.25
2022-12-27T15:19:41.232Z,6.75
2022-12-27T15:22:19.225Z,3.77
2022-12-27T15:24:57.684Z,4.47
2022-12-27T15:27:32.645Z,5.55
2022-12-27T15:32:57.793Z,3.38
2022-12-27T15:35:38.741Z,13.63
2022-12-27T15:38:11.781Z,7.05
2022-12-27T15:40:53.747Z,9.98
2022-12-27T15:43:40.155Z,4.13
2022-12-27T15:46:23.690Z,3.97
2022-12-27T15:49:13.905Z,4.10
2022-12-27T15:51:49.697Z,3.35
2022-12-27T15:54:40.025Z,4.85
2022-12-27T15:57:31.001Z,4.47
2022-12-27T16:00:14.786Z,4.00
2022-12-27T16:03:02.838Z,4.72
2022-12-27T16:05:52.405Z,1.98
2022-12-27T16:08:33.800Z,3.42
2022-12-27T16:11:03.778Z,3.53
2022-12-27T16:13:44.072Z,2.15
2022-12-27T16:16:57.770Z,2.75
2022-12-27T16:19:50.643Z,3.70
2022-12-27T16:22:33.916Z,4.53
2022-12-27T16:25:26.985Z,4.25
2022-12-27T16:28:02.094Z,3.35
2022-12-27T16:30:55.774Z,4.07
2022-12-27T16:33:33.675Z,3.08
2022-12-27T16:36:18.078Z,5.57
2022-12-27T16:38:49.630Z,3.42
2022-12-27T16:41:33.320Z,2.97
2022-12-27T16:44:15.278Z,4.28
2022-12-27T16:47:02.532Z,3.13
2022-12-27T16:49:56.448Z,2.97
2022-12-27T16:52:48.670Z,3.83
2022-12-27T16:55:30.718Z,4.82
2022-12-27T16:58:24.440Z,2.80
2022-12-27T17:00:53.649Z,3.33
2022-12-27T17:03:47.378Z,1.80
2022-12-27T17:06:56.101Z,4.47
2022-12-27T17:09:43.639Z,1.88
2022-12-27T17:12:24.400Z,2.72
2022-12-27T17:14:59.345Z,5.05
2022-12-27T17:20:01.014Z,3.88
2022-12-27T17:22:34.581Z,3.33
2022-12-27T17:25:05.395Z,3.70
2022-12-27T17:27:47.857Z,3.55
2022-12-27T17:30:20.816Z,5.43
2022-12-27T17:33:22.974Z,3.63
2022-12-27T17:36:14.598Z,10.02
2022-12-27T17:38:59.809Z,11.25
2022-12-27T17:41:57.078Z,9.18
2022-12-27T17:44:41.720Z,5.20
2022-12-27T17:47:28.810Z,5.40
2022-12-27T17:50:01.461Z,9.05
2022-12-27T17:52:55.232Z,7.35
2022-12-27T17:55:39.117Z,13.38
2022-12-27T17:58:11.253Z,5.75
2022-12-27T18:00:53.178Z,4.70
2022-12-27T18:03:22.380Z,6.72
2022-12-27T18:05:51.081Z,3.17
2022-12-27T18:08:26.213Z,3.42
2022-12-27T18:10:54.221Z,8.05
2022-12-27T18:13:27.106Z,5.57
2022-12-27T18:15:56.161Z,6.63
2022-12-27T18:18:27.910Z,5.22
2022-12-27T18:20:59.774Z,6.22
2022-12-27T18:23:28.312Z,8.95
2022-12-27T18:26:02.769Z,7.68
2022-12-27T18:28:34.305Z,7.88
2022-12-27T18:31:07.026Z,6.53
2022-12-27T18:33:39.080Z,9.15
2022-12-27T18:36:10.047Z,5.55
2022-12-27T18:38:42.605Z,5.65
2022-12-27T18:41:14.286Z,5.60
2022-12-27T18:43:47.462Z,6.50
2022-12-27T18:46:17.840Z,5.22
2022-12-27T18:48:46.263Z,9.93
2022-12-27T18:51:14.448Z,17.63
2022-12-27T18:53:45.659Z,19.75
2022-12-27T18:56:29.239Z,15.68
2022-12-27T18:59:04.340Z,13.93
2022-12-27T19:04:26.460Z,16.58
2022-12-27T19:06:59.621Z,12.38
2022-12-27T19:09:31.040Z,15.13
2022-12-27T19:12:01.431Z,19.02
2022-12-27T19:14:37.034Z,6.95
2022-12-27T19:17:10.631Z,12.90
2022-12-27T19:19:39.785Z,16.77
2022-12-27T19:22:34.090Z,10.02
2022-12-27T19:25:03.628Z,12.50
2022-12-27T19:27:31.650Z,30.00
2022-12-27T19:30:01.149Z,12.30
2022-12-27T19:32:33.683Z,13.52
2022-12-27T19:35:04.295Z,15.77
2022-12-27T19:37:33.690Z,11.93
2022-12-27T19:40:02.261Z,21.00
2022-12-27T19:42:32.083Z,11.65
2022-12-27T19:45:01.876Z,8.25
2022-12-27T19:47:29.808Z,13.02
2022-12-27T19:49:57.726Z,8.52
2022-12-27T19:52:28.483Z,13.57
2022-12-27T19:55:01.791Z,9.40
2022-12-27T19:57:29.911Z,7.78
2022-12-27T19:59:57.971Z,7.20
2022-12-27T20:02:27.693Z,23.25
2022-12-27T20:04:56.647Z,9.63
2022-12-27T20:07:26.530Z,14.43
2022-12-27T20:09:54.509Z,13.77
2022-12-27T20:12:22.534Z,15.02
2022-12-27T20:14:50.493Z,14.88
2022-12-27T20:17:18.419Z,10.35
2022-12-27T20:19:47.774Z,10.25
2022-12-27T20:22:15.715Z,15.38
2022-12-27T20:24:43.596Z,10.77
2022-12-27T20:27:11.584Z,7.72
2022-12-27T20:29:39.514Z,7.25
2022-12-27T20:32:07.633Z,5.50
2022-12-27T20:34:36.310Z,8.05
2022-12-27T20:37:05.882Z,32.70
2022-12-27T20:39:34.571Z,22.05
2022-12-27T20:42:02.458Z,27.42
2022-12-27T20:44:30.950Z,46.55
2022-12-27T20:46:58.822Z,20.42
2022-12-27T20:49:26.896Z,16.33
2022-12-27T20:51:54.807Z,13.07
2022-12-27T20:54:24.184Z,13.60
2022-12-27T20:56:52.177Z,17.73
2022-12-27T20:59:20.341Z,20.73
2022-12-27T21:01:53.037Z,15.88
2022-12-27T21:04:24.667Z,14.52
2022-12-27T21:06:52.738Z,17.30
2022-12-27T21:09:20.653Z,34.53
2022-12-27T21:11:52.079Z,34.65
2022-12-27T21:14:20.044Z,53.40
2022-12-27T21:16:48.060Z,35.85
2022-12-27T21:19:16.173Z,23.50
2022-12-27T21:21:44.738Z,26.58
2022-12-27T21:24:12.773Z,23.75
2022-12-27T21:26:41.308Z,26.23
2022-12-27T21:29:12.292Z,103.20
2022-12-27T21:31:40.337Z,284.70
2022-12-27T21:34:08.449Z,40.85
2022-12-27T21:36:38.414Z,27.30
2022-12-27T21:39:07.596Z,27.48
2022-12-27T21:41:37.073Z,31.48
2022-12-27T21:44:05.595Z,48.35
2022-12-27T21:46:37.102Z,51.92
2022-12-27T21:49:07.080Z,30.98
2022-12-27T21:51:37.093Z,18.38
2022-12-27T21:54:05.667Z,14.77
2022-12-27T21:56:33.891Z,22.60
2022-12-27T21:59:03.069Z,17.98
2022-12-27T22:01:49.648Z,23.00
2022-12-27T22:04:21.214Z,18.98
2022-12-27T22:06:49.279Z,19.48
2022-12-27T22:09:19.266Z,22.88
2022-12-27T22:11:47.929Z,31.70
2022-12-27T22:14:15.839Z,30.65
2022-12-27T22:16:43.712Z,31.60
2022-12-27T22:19:13.545Z,27.08
2022-12-27T22:21:44.904Z,32.10
2022-12-27T22:24:17.281Z,32.35
2022-12-27T22:26:45.300Z,27.63
2022-12-27T22:29:13.196Z,29.85
2022-12-27T22:31:42.828Z,29.38
2022-12-27T22:34:10.948Z,25.05
2022-12-27T22:36:38.946Z,24.70
2022-12-27T22:39:08.282Z,29.30
2022-12-27T22:41:37.511Z,26.92
2022-12-27T22:44:07.741Z,26.00
2022-12-27T22:47:15.334Z,26.27
2022-12-27T22:49:24.583Z,24.70
2022-12-27T22:51:52.761Z,24.45
2022-12-27T22:55:06.036Z,25.08
2022-12-27T22:57:10.129Z,34.10
2022-12-27T22:59:38.059Z,33.05
2022-12-27T23:02:06.201Z,30.85
2022-12-27T23:04:34.483Z,31.40
2022-12-27T23:07:02.543Z,35.15
2022-12-27T23:09:32.035Z,32.15
2022-12-27T23:12:00.084Z,36.08
2022-12-27T23:14:28.407Z,31.98
2022-12-27T23:16:56.344Z,31.23
2022-12-27T23:19:25.733Z,30.10
2022-12-27T23:21:53.667Z,40.90
2022-12-27T23:24:21.721Z,36.65
2022-12-27T23:26:51.443Z,40.15
2022-12-27T23:29:19.401Z,39.30
2022-12-27T23:31:54.671Z,32.08
2022-12-27T23:34:28.102Z,30.63
2022-12-27T23:36:57.123Z,31.35
2022-12-27T23:39:25.167Z,57.08
2022-12-27T23:41:54.852Z,63.15
2022-12-27T23:44:33.022Z,49.97
2022-12-27T23:47:03.797Z,51.40
2022-12-27T23:49:31.788Z,41.13
2022-12-27T23:51:59.851Z,38.08
2022-12-27T23:54:27.874Z,38.03
2022-12-27T23:56:57.293Z,37.03
2022-12-27T23:59:25.283Z,35.65
